sensor_id;sensor_type;location;lat;lon;timestamp;temperature;humidity
48589;DHT22;34369;51.174;6.738;2022-09-21T00:00:03;8.80;82.80
48589;DHT22;34369;51.174;6.738;2022-09-21T00:02:35;8.70;82.90
48589;DHT22;34369;51.174;6.738;2022-09-21T00:05:08;8.70;83.40
48589;DHT22;34369;51.174;6.738;2022-09-21T00:07:41;8.70;83.30
48589;DHT22;34369;51.174;6.738;2022-09-21T00:10:13;8.70;83.30
48589;DHT22;34369;51.174;6.738;2022-09-21T00:17:52;8.60;83.50
48589;DHT22;34369;51.174;6.738;2022-09-21T00:20:25;8.60;83.50
48589;DHT22;34369;51.174;6.738;2022-09-21T00:22:59;8.50;83.90
48589;DHT22;34369;51.174;6.738;2022-09-21T00:25:31;8.60;83.80
48589;DHT22;34369;51.174;6.738;2022-09-21T00:30:36;8.50;83.30
48589;DHT22;34369;51.174;6.738;2022-09-21T00:35:40;8.50;83.70
48589;DHT22;34369;51.174;6.738;2022-09-21T00:38:14;8.50;83.70
48589;DHT22;34369;51.174;6.738;2022-09-21T00:40:46;8.50;84.00
48589;DHT22;34369;51.174;6.738;2022-09-21T00:43:18;8.50;85.00
48589;DHT22;34369;51.174;6.738;2022-09-21T00:45:58;8.40;84.20
48589;DHT22;34369;51.174;6.738;2022-09-21T00:48:32;8.40;84.20
48589;DHT22;34369;51.174;6.738;2022-09-21T00:51:06;8.40;84.60
48589;DHT22;34369;51.174;6.738;2022-09-21T00:53:40;8.30;84.20
48589;DHT22;34369;51.174;6.738;2022-09-21T00:56:13;8.30;83.90
48589;DHT22;34369;51.174;6.738;2022-09-21T00:58:47;8.40;84.30
48589;DHT22;34369;51.174;6.738;2022-09-21T01:01:21;8.30;84.50
48589;DHT22;34369;51.174;6.738;2022-09-21T01:03:54;8.30;84.60
48589;DHT22;34369;51.174;6.738;2022-09-21T01:06:26;8.20;84.50
48589;DHT22;34369;51.174;6.738;2022-09-21T01:09:00;9.00;85.20
48589;DHT22;34369;51.174;6.738;2022-09-21T01:11:36;8.20;84.50
48589;DHT22;34369;51.174;6.738;2022-09-21T01:14:38;8.20;84.60
48589;DHT22;34369;51.174;6.738;2022-09-21T01:17:27;8.00;85.10
48589;DHT22;34369;51.174;6.738;2022-09-21T01:20:30;8.00;85.50
48589;DHT22;34369;51.174;6.738;2022-09-21T01:23:26;8.10;85.50
48589;DHT22;34369;51.174;6.738;2022-09-21T01:26:19;8.10;85.00
48589;DHT22;34369;51.174;6.738;2022-09-21T01:29:11;8.00;85.10
48589;DHT22;34369;51.174;6.738;2022-09-21T01:31:51;8.00;85.20
48589;DHT22;34369;51.174;6.738;2022-09-21T01:34:29;7.90;85.20
48589;DHT22;34369;51.174;6.738;2022-09-21T01:37:07;7.90;85.30
48589;DHT22;34369;51.174;6.738;2022-09-21T01:39:44;7.90;85.80
48589;DHT22;34369;51.174;6.738;2022-09-21T01:42:19;7.90;85.30
48589;DHT22;34369;51.174;6.738;2022-09-21T01:44:56;7.90;85.10
48589;DHT22;34369;51.174;6.738;2022-09-21T01:50:05;7.80;85.70
48589;DHT22;34369;51.174;6.738;2022-09-21T01:52:38;7.80;86.30
48589;DHT22;34369;51.174;6.738;2022-09-21T01:55:21;7.80;85.30
48589;DHT22;34369;51.174;6.738;2022-09-21T01:58:00;7.70;85.40
48589;DHT22;34369;51.174;6.738;2022-09-21T02:00:37;7.80;85.70
48589;DHT22;34369;51.174;6.738;2022-09-21T02:03:12;7.70;85.60
48589;DHT22;34369;51.174;6.738;2022-09-21T02:05:47;7.60;85.70
48589;DHT22;34369;51.174;6.738;2022-09-21T02:10:52;7.50;85.50
48589;DHT22;34369;51.174;6.738;2022-09-21T02:13:26;7.60;85.80
48589;DHT22;34369;51.174;6.738;2022-09-21T02:19:13;7.50;85.90
48589;DHT22;34369;51.174;6.738;2022-09-21T02:21:57;7.50;85.80
48589;DHT22;34369;51.174;6.738;2022-09-21T02:24:38;7.50;86.00
48589;DHT22;34369;51.174;6.738;2022-09-21T02:27:21;7.50;86.20
48589;DHT22;34369;51.174;6.738;2022-09-21T02:30:02;7.40;86.10
48589;DHT22;34369;51.174;6.738;2022-09-21T02:32:44;7.40;86.20
48589;DHT22;34369;51.174;6.738;2022-09-21T02:35:27;7.40;86.20
48589;DHT22;34369;51.174;6.738;2022-09-21T02:38:08;7.40;86.30
48589;DHT22;34369;51.174;6.738;2022-09-21T02:40:49;7.50;86.20
48589;DHT22;34369;51.174;6.738;2022-09-21T02:43:29;7.40;86.40
48589;DHT22;34369;51.174;6.738;2022-09-21T02:46:06;7.40;87.00
48589;DHT22;34369;51.174;6.738;2022-09-21T02:48:45;7.50;86.50
48589;DHT22;34369;51.174;6.738;2022-09-21T02:51:21;7.30;86.70
48589;DHT22;34369;51.174;6.738;2022-09-21T02:53:58;7.30;86.10
48589;DHT22;34369;51.174;6.738;2022-09-21T02:56:32;8.40;87.50
48589;DHT22;34369;51.174;6.738;2022-09-21T02:59:05;7.30;85.80
48589;DHT22;34369;51.174;6.738;2022-09-21T03:01:39;7.30;86.10
48589;DHT22;34369;51.174;6.738;2022-09-21T03:04:12;7.30;86.40
48589;DHT22;34369;51.174;6.738;2022-09-21T03:06:44;7.20;86.90
48589;DHT22;34369;51.174;6.738;2022-09-21T03:11:50;7.30;87.10
48589;DHT22;34369;51.174;6.738;2022-09-21T03:14:23;7.20;86.40
48589;DHT22;34369;51.174;6.738;2022-09-21T03:19:29;7.20;86.10
48589;DHT22;34369;51.174;6.738;2022-09-21T03:22:01;9.60;88.70
48589;DHT22;34369;51.174;6.738;2022-09-21T03:24:33;7.20;86.10
48589;DHT22;34369;51.174;6.738;2022-09-21T03:27:19;7.20;86.40
48589;DHT22;34369;51.174;6.738;2022-09-21T03:34:57;7.10;86.30
48589;DHT22;34369;51.174;6.738;2022-09-21T03:40:02;7.10;86.70
48589;DHT22;34369;51.174;6.738;2022-09-21T03:45:08;7.00;87.00
48589;DHT22;34369;51.174;6.738;2022-09-21T03:50:14;7.00;86.80
48589;DHT22;34369;51.174;6.738;2022-09-21T04:05:30;6.90;87.20
48589;DHT22;34369;51.174;6.738;2022-09-21T04:13:08;6.90;87.90
48589;DHT22;34369;51.174;6.738;2022-09-21T04:20:45;6.80;87.20
48589;DHT22;34369;51.174;6.738;2022-09-21T04:36:01;6.70;86.80
48589;DHT22;34369;51.174;6.738;2022-09-21T04:43:40;6.60;87.10
48589;DHT22;34369;51.174;6.738;2022-09-21T04:46:14;6.60;87.20
48589;DHT22;34369;51.174;6.738;2022-09-21T04:51:21;6.60;87.30
48589;DHT22;34369;51.174;6.738;2022-09-21T05:06:37;10.60;89.80
48589;DHT22;34369;51.174;6.738;2022-09-21T05:09:09;6.50;87.60
48589;DHT22;34369;51.174;6.738;2022-09-21T05:11:58;6.40;87.70
48589;DHT22;34369;51.174;6.738;2022-09-21T05:14:32;6.50;87.60
48589;DHT22;34369;51.174;6.738;2022-09-21T05:22:10;6.30;87.50
48589;DHT22;34369;51.174;6.738;2022-09-21T05:29:47;6.40;87.80
48589;DHT22;34369;51.174;6.738;2022-09-21T05:32:24;6.30;87.50
48589;DHT22;34369;51.174;6.738;2022-09-21T05:35:05;6.30;87.50
48589;DHT22;34369;51.174;6.738;2022-09-21T05:37:47;6.40;87.50
48589;DHT22;34369;51.174;6.738;2022-09-21T05:40:25;6.40;87.50
48589;DHT22;34369;51.174;6.738;2022-09-21T05:42:58;6.40;87.50
48589;DHT22;34369;51.174;6.738;2022-09-21T05:45:31;9.00;89.30
48589;DHT22;34369;51.174;6.738;2022-09-21T05:48:11;6.30;88.10
48589;DHT22;34369;51.174;6.738;2022-09-21T05:50:51;6.30;88.50
48589;DHT22;34369;51.174;6.738;2022-09-21T05:53:40;6.30;87.90
48589;DHT22;34369;51.174;6.738;2022-09-21T05:56:30;6.30;87.90
48589;DHT22;34369;51.174;6.738;2022-09-21T06:02:18;6.40;88.00
48589;DHT22;34369;51.174;6.738;2022-09-21T06:10:03;6.40;88.50
48589;DHT22;34369;51.174;6.738;2022-09-21T06:15:11;6.50;90.00
48589;DHT22;34369;51.174;6.738;2022-09-21T06:25:23;6.60;90.30
48589;DHT22;34369;51.174;6.738;2022-09-21T06:28:00;6.80;90.70
48589;DHT22;34369;51.174;6.738;2022-09-21T06:33:07;6.80;90.90
48589;DHT22;34369;51.174;6.738;2022-09-21T06:40:49;7.00;91.20
48589;DHT22;34369;51.174;6.738;2022-09-21T06:45:55;7.10;91.40
48589;DHT22;34369;51.174;6.738;2022-09-21T06:48:29;7.30;91.50
48589;DHT22;34369;51.174;6.738;2022-09-21T06:51:03;7.30;91.60
48589;DHT22;34369;51.174;6.738;2022-09-21T06:56:10;7.60;92.10
48589;DHT22;34369;51.174;6.738;2022-09-21T07:01:17;7.90;92.50
48589;DHT22;34369;51.174;6.738;2022-09-21T07:03:51;7.90;92.90
48589;DHT22;34369;51.174;6.738;2022-09-21T07:08:56;8.30;93.00
48589;DHT22;34369;51.174;6.738;2022-09-21T07:11:29;8.50;92.70
48589;DHT22;34369;51.174;6.738;2022-09-21T07:26:47;9.30;92.90
48589;DHT22;34369;51.174;6.738;2022-09-21T07:31:52;9.90;93.10
48589;DHT22;34369;51.174;6.738;2022-09-21T07:34:24;10.10;93.10
48589;DHT22;34369;51.174;6.738;2022-09-21T07:36:56;10.50;92.80
48589;DHT22;34369;51.174;6.738;2022-09-21T07:42:01;11.00;91.90
48589;DHT22;34369;51.174;6.738;2022-09-21T07:49:39;11.70;91.00
48589;DHT22;34369;51.174;6.738;2022-09-21T07:52:12;11.80;90.60
48589;DHT22;34369;51.174;6.738;2022-09-21T07:57:18;11.90;90.10
48589;DHT22;34369;51.174;6.738;2022-09-21T08:00:09;12.10;90.00
48589;DHT22;34369;51.174;6.738;2022-09-21T08:12:55;12.60;88.50
48589;DHT22;34369;51.174;6.738;2022-09-21T08:28:11;13.30;85.20
48589;DHT22;34369;51.174;6.738;2022-09-21T08:35:52;13.60;84.50
48589;DHT22;34369;51.174;6.738;2022-09-21T08:38:25;13.50;83.80
48589;DHT22;34369;51.174;6.738;2022-09-21T08:41:00;13.50;84.20
48589;DHT22;34369;51.174;6.738;2022-09-21T08:43:37;13.60;83.00
48589;DHT22;34369;51.174;6.738;2022-09-21T08:46:14;13.60;82.90
48589;DHT22;34369;51.174;6.738;2022-09-21T08:48:53;13.70;82.80
48589;DHT22;34369;51.174;6.738;2022-09-21T08:51:30;13.80;82.90
48589;DHT22;34369;51.174;6.738;2022-09-21T08:54:09;13.90;83.10
48589;DHT22;34369;51.174;6.738;2022-09-21T08:56:45;14.10;84.30
48589;DHT22;34369;51.174;6.738;2022-09-21T08:59:19;14.20;83.80
48589;DHT22;34369;51.174;6.738;2022-09-21T09:01:56;14.80;84.40
48589;DHT22;34369;51.174;6.738;2022-09-21T09:04:49;15.20;85.20
48589;DHT22;34369;51.174;6.738;2022-09-21T09:07:43;15.30;84.60
48589;DHT22;34369;51.174;6.738;2022-09-21T09:10:34;16.70;84.60
48589;DHT22;34369;51.174;6.738;2022-09-21T09:13:32;16.80;83.00
48589;DHT22;34369;51.174;6.738;2022-09-21T09:16:19;17.50;78.60
48589;DHT22;34369;51.174;6.738;2022-09-21T09:18:58;18.30;79.50
48589;DHT22;34369;51.174;6.738;2022-09-21T09:21:38;19.00;76.90
48589;DHT22;34369;51.174;6.738;2022-09-21T09:24:17;20.10;72.70
48589;DHT22;34369;51.174;6.738;2022-09-21T09:26:59;20.20;71.60
48589;DHT22;34369;51.174;6.738;2022-09-21T09:29:41;20.50;68.70
48589;DHT22;34369;51.174;6.738;2022-09-21T09:32:17;21.00;67.20
48589;DHT22;34369;51.174;6.738;2022-09-21T09:34:52;21.20;66.30
48589;DHT22;34369;51.174;6.738;2022-09-21T09:37:32;21.40;65.00
48589;DHT22;34369;51.174;6.738;2022-09-21T09:40:06;21.70;62.60
48589;DHT22;34369;51.174;6.738;2022-09-21T09:42:48;21.60;62.60
48589;DHT22;34369;51.174;6.738;2022-09-21T09:45:35;21.70;60.80
48589;DHT22;34369;51.174;6.738;2022-09-21T09:48:25;21.60;60.30
48589;DHT22;34369;51.174;6.738;2022-09-21T09:51:03;21.60;58.30
48589;DHT22;34369;51.174;6.738;2022-09-21T09:53:35;21.50;60.50
48589;DHT22;34369;51.174;6.738;2022-09-21T09:56:08;21.10;59.10
48589;DHT22;34369;51.174;6.738;2022-09-21T09:58:45;21.00;59.90
48589;DHT22;34369;51.174;6.738;2022-09-21T10:01:39;20.70;58.90
48589;DHT22;34369;51.174;6.738;2022-09-21T10:04:15;20.40;58.90
48589;DHT22;34369;51.174;6.738;2022-09-21T10:09:25;20.20;58.10
48589;DHT22;34369;51.174;6.738;2022-09-21T10:12:00;20.00;58.50
48589;DHT22;34369;51.174;6.738;2022-09-21T10:17:07;19.60;58.80
48589;DHT22;34369;51.174;6.738;2022-09-21T10:19:40;19.70;59.40
48589;DHT22;34369;51.174;6.738;2022-09-21T10:22:15;19.20;58.00
48589;DHT22;34369;51.174;6.738;2022-09-21T10:24:50;19.00;58.70
48589;DHT22;34369;51.174;6.738;2022-09-21T10:27:26;19.00;59.20
48589;DHT22;34369;51.174;6.738;2022-09-21T10:29:58;18.90;59.70
48589;DHT22;34369;51.174;6.738;2022-09-21T10:32:31;18.80;60.60
48589;DHT22;34369;51.174;6.738;2022-09-21T10:35:15;18.80;60.10
48589;DHT22;34369;51.174;6.738;2022-09-21T10:38:08;18.80;59.40
48589;DHT22;34369;51.174;6.738;2022-09-21T10:40:42;18.80;57.50
48589;DHT22;34369;51.174;6.738;2022-09-21T10:43:23;18.80;58.10
48589;DHT22;34369;51.174;6.738;2022-09-21T10:45:56;18.70;56.20
48589;DHT22;34369;51.174;6.738;2022-09-21T10:48:29;18.70;56.40
48589;DHT22;34369;51.174;6.738;2022-09-21T10:51:03;18.60;55.60
48589;DHT22;34369;51.174;6.738;2022-09-21T10:53:38;18.60;55.80
48589;DHT22;34369;51.174;6.738;2022-09-21T10:56:15;18.60;55.30
48589;DHT22;34369;51.174;6.738;2022-09-21T10:59:12;18.80;55.50
48589;DHT22;34369;51.174;6.738;2022-09-21T11:01:53;18.60;54.70
48589;DHT22;34369;51.174;6.738;2022-09-21T11:04:32;18.70;55.60
48589;DHT22;34369;51.174;6.738;2022-09-21T11:07:15;18.90;55.30
48589;DHT22;34369;51.174;6.738;2022-09-21T11:09:53;19.10;54.30
48589;DHT22;34369;51.174;6.738;2022-09-21T11:12:41;19.40;55.40
48589;DHT22;34369;51.174;6.738;2022-09-21T11:15:28;19.80;55.00
48589;DHT22;34369;51.174;6.738;2022-09-21T11:18:14;20.40;54.00
48589;DHT22;34369;51.174;6.738;2022-09-21T11:20:53;20.40;53.80
48589;DHT22;34369;51.174;6.738;2022-09-21T11:23:39;20.70;53.00
48589;DHT22;34369;51.174;6.738;2022-09-21T11:26:22;20.90;50.60
48589;DHT22;34369;51.174;6.738;2022-09-21T11:29:01;21.10;49.90
48589;DHT22;34369;51.174;6.738;2022-09-21T11:31:57;21.30;51.50
48589;DHT22;34369;51.174;6.738;2022-09-21T11:35:16;21.30;50.20
48589;DHT22;34369;51.174;6.738;2022-09-21T11:38:04;21.50;49.40
48589;DHT22;34369;51.174;6.738;2022-09-21T11:40:49;21.70;49.40
48589;DHT22;34369;51.174;6.738;2022-09-21T11:43:42;21.80;49.60
48589;DHT22;34369;51.174;6.738;2022-09-21T11:46:24;22.20;50.00
48589;DHT22;34369;51.174;6.738;2022-09-21T11:52:31;22.40;46.90
48589;DHT22;34369;51.174;6.738;2022-09-21T11:55:22;22.50;46.40
48589;DHT22;34369;51.174;6.738;2022-09-21T11:58:11;22.60;47.00
48589;DHT22;34369;51.174;6.738;2022-09-21T12:00:57;22.70;45.70
48589;DHT22;34369;51.174;6.738;2022-09-21T12:03:48;22.60;46.00
48589;DHT22;34369;51.174;6.738;2022-09-21T12:06:42;22.50;45.70
48589;DHT22;34369;51.174;6.738;2022-09-21T12:12:31;22.50;46.70
48589;DHT22;34369;51.174;6.738;2022-09-21T12:15:10;22.50;45.80
48589;DHT22;34369;51.174;6.738;2022-09-21T12:17:49;22.60;44.50
48589;DHT22;34369;51.174;6.738;2022-09-21T12:20:33;22.50;45.50
48589;DHT22;34369;51.174;6.738;2022-09-21T12:23:14;22.40;44.60
48589;DHT22;34369;51.174;6.738;2022-09-21T12:25:49;22.30;44.50
48589;DHT22;34369;51.174;6.738;2022-09-21T12:28:26;22.10;45.00
48589;DHT22;34369;51.174;6.738;2022-09-21T12:31:04;22.00;44.80
48589;DHT22;34369;51.174;6.738;2022-09-21T12:33:44;22.00;44.60
48589;DHT22;34369;51.174;6.738;2022-09-21T12:36:40;21.90;45.70
48589;DHT22;34369;51.174;6.738;2022-09-21T12:39:18;21.90;44.30
48589;DHT22;34369;51.174;6.738;2022-09-21T12:41:57;22.00;46.20
48589;DHT22;34369;51.174;6.738;2022-09-21T12:44:37;22.00;45.70
48589;DHT22;34369;51.174;6.738;2022-09-21T12:47:40;22.10;45.50
48589;DHT22;34369;51.174;6.738;2022-09-21T12:50:20;22.00;44.90
48589;DHT22;34369;51.174;6.738;2022-09-21T12:52:57;21.80;43.20
48589;DHT22;34369;51.174;6.738;2022-09-21T12:55:37;21.70;43.60
48589;DHT22;34369;51.174;6.738;2022-09-21T12:58:27;21.60;43.00
48589;DHT22;34369;51.174;6.738;2022-09-21T13:01:14;21.50;44.80
48589;DHT22;34369;51.174;6.738;2022-09-21T13:04:09;21.30;44.50
48589;DHT22;34369;51.174;6.738;2022-09-21T13:07:07;21.10;44.40
48589;DHT22;34369;51.174;6.738;2022-09-21T13:09:49;20.90;45.20
48589;DHT22;34369;51.174;6.738;2022-09-21T13:12:24;20.80;45.30
48589;DHT22;34369;51.174;6.738;2022-09-21T13:17:59;20.90;45.50
48589;DHT22;34369;51.174;6.738;2022-09-21T13:20:37;21.10;43.70
48589;DHT22;34369;51.174;6.738;2022-09-21T13:23:15;21.40;44.40
48589;DHT22;34369;51.174;6.738;2022-09-21T13:25:49;21.50;44.30
48589;DHT22;34369;51.174;6.738;2022-09-21T13:28:59;21.90;44.70
48589;DHT22;34369;51.174;6.738;2022-09-21T13:31:42;21.80;43.70
48589;DHT22;34369;51.174;6.738;2022-09-21T13:34:29;21.80;44.40
48589;DHT22;34369;51.174;6.738;2022-09-21T13:37:33;21.90;45.30
48589;DHT22;34369;51.174;6.738;2022-09-21T13:40:48;21.80;43.90
48589;DHT22;34369;51.174;6.738;2022-09-21T13:43:41;21.70;44.40
48589;DHT22;34369;51.174;6.738;2022-09-21T13:46:44;21.60;44.50
48589;DHT22;34369;51.174;6.738;2022-09-21T13:49:30;21.40;44.30
48589;DHT22;34369;51.174;6.738;2022-09-21T13:52:06;21.20;45.00
48589;DHT22;34369;51.174;6.738;2022-09-21T13:55:00;21.00;45.40
48589;DHT22;34369;51.174;6.738;2022-09-21T13:57:38;20.80;45.10
48589;DHT22;34369;51.174;6.738;2022-09-21T14:00:31;20.60;45.60
48589;DHT22;34369;51.174;6.738;2022-09-21T14:03:18;20.30;45.50
48589;DHT22;34369;51.174;6.738;2022-09-21T14:05:54;20.20;45.70
48589;DHT22;34369;51.174;6.738;2022-09-21T14:08:34;20.20;46.50
48589;DHT22;34369;51.174;6.738;2022-09-21T14:11:15;20.10;46.60
48589;DHT22;34369;51.174;6.738;2022-09-21T14:14:03;20.20;46.30
48589;DHT22;34369;51.174;6.738;2022-09-21T14:16:53;20.40;45.40
48589;DHT22;34369;51.174;6.738;2022-09-21T14:23:25;20.40;46.10
48589;DHT22;34369;51.174;6.738;2022-09-21T14:26:01;20.20;45.90
48589;DHT22;34369;51.174;6.738;2022-09-21T14:28:51;20.20;45.90
48589;DHT22;34369;51.174;6.738;2022-09-21T14:31:32;20.10;45.70
48589;DHT22;34369;51.174;6.738;2022-09-21T14:34:11;20.00;45.40
48589;DHT22;34369;51.174;6.738;2022-09-21T14:36:48;19.80;45.10
48589;DHT22;34369;51.174;6.738;2022-09-21T14:39:25;19.70;46.00
48589;DHT22;34369;51.174;6.738;2022-09-21T14:42:06;19.50;46.20
48589;DHT22;34369;51.174;6.738;2022-09-21T14:44:42;19.40;46.10
48589;DHT22;34369;51.174;6.738;2022-09-21T14:47:30;19.30;46.30
48589;DHT22;34369;51.174;6.738;2022-09-21T14:50:26;19.00;46.50
48589;DHT22;34369;51.174;6.738;2022-09-21T14:53:33;18.90;47.50
48589;DHT22;34369;51.174;6.738;2022-09-21T14:56:44;18.80;47.60
48589;DHT22;34369;51.174;6.738;2022-09-21T14:59:46;18.60;48.00
48589;DHT22;34369;51.174;6.738;2022-09-21T15:02:27;18.50;48.00
48589;DHT22;34369;51.174;6.738;2022-09-21T15:05:11;18.50;47.30
48589;DHT22;34369;51.174;6.738;2022-09-21T15:11:09;18.40;47.00
48589;DHT22;34369;51.174;6.738;2022-09-21T15:14:12;18.40;48.20
48589;DHT22;34369;51.174;6.738;2022-09-21T15:16:50;18.30;47.80
48589;DHT22;34369;51.174;6.738;2022-09-21T15:19:23;18.30;49.10
48589;DHT22;34369;51.174;6.738;2022-09-21T15:22:14;18.20;48.90
48589;DHT22;34369;51.174;6.738;2022-09-21T15:24:49;18.30;48.90
48589;DHT22;34369;51.174;6.738;2022-09-21T15:27:24;18.20;48.80
48589;DHT22;34369;51.174;6.738;2022-09-21T15:30:05;18.40;48.90
48589;DHT22;34369;51.174;6.738;2022-09-21T15:32:41;18.40;49.00
48589;DHT22;34369;51.174;6.738;2022-09-21T15:35:18;18.40;49.60
48589;DHT22;34369;51.174;6.738;2022-09-21T15:40:27;18.60;49.50
48589;DHT22;34369;51.174;6.738;2022-09-21T15:43:02;18.60;50.00
48589;DHT22;34369;51.174;6.738;2022-09-21T15:45:49;18.80;48.50
48589;DHT22;34369;51.174;6.738;2022-09-21T15:48:27;18.70;48.10
48589;DHT22;34369;51.174;6.738;2022-09-21T15:51:08;18.80;48.50
48589;DHT22;34369;51.174;6.738;2022-09-21T15:53:44;18.80;48.90
48589;DHT22;34369;51.174;6.738;2022-09-21T15:56:20;18.90;49.10
48589;DHT22;34369;51.174;6.738;2022-09-21T15:58:58;19.00;48.90
48589;DHT22;34369;51.174;6.738;2022-09-21T16:01:39;19.00;49.00
48589;DHT22;34369;51.174;6.738;2022-09-21T16:04:17;19.00;49.50
48589;DHT22;34369;51.174;6.738;2022-09-21T16:06:59;19.20;48.90
48589;DHT22;34369;51.174;6.738;2022-09-21T16:09:39;19.10;48.60
48589;DHT22;34369;51.174;6.738;2022-09-21T16:12:42;19.20;49.20
48589;DHT22;34369;51.174;6.738;2022-09-21T16:15:17;19.20;48.20
48589;DHT22;34369;51.174;6.738;2022-09-21T16:17:57;19.30;48.40
48589;DHT22;34369;51.174;6.738;2022-09-21T16:20:42;19.20;48.40
48589;DHT22;34369;51.174;6.738;2022-09-21T16:23:18;19.20;48.50
48589;DHT22;34369;51.174;6.738;2022-09-21T16:25:53;19.10;48.70
48589;DHT22;34369;51.174;6.738;2022-09-21T16:28:36;19.10;48.90
48589;DHT22;34369;51.174;6.738;2022-09-21T16:31:28;19.90;49.10
48589;DHT22;34369;51.174;6.738;2022-09-21T16:34:04;19.00;48.60
48589;DHT22;34369;51.174;6.738;2022-09-21T16:36:52;18.90;48.80
48589;DHT22;34369;51.174;6.738;2022-09-21T16:39:24;18.90;48.90
48589;DHT22;34369;51.174;6.738;2022-09-21T16:42:00;18.70;48.80
48589;DHT22;34369;51.174;6.738;2022-09-21T16:44:33;18.60;48.90
48589;DHT22;34369;51.174;6.738;2022-09-21T16:47:15;18.50;49.30
48589;DHT22;34369;51.174;6.738;2022-09-21T16:49:53;18.30;49.10
48589;DHT22;34369;51.174;6.738;2022-09-21T16:52:29;18.30;49.20
48589;DHT22;34369;51.174;6.738;2022-09-21T16:55:01;18.20;49.60
48589;DHT22;34369;51.174;6.738;2022-09-21T16:57:33;18.00;49.70
48589;DHT22;34369;51.174;6.738;2022-09-21T17:00:09;17.20;49.40
48589;DHT22;34369;51.174;6.738;2022-09-21T17:02:51;17.70;50.40
48589;DHT22;34369;51.174;6.738;2022-09-21T17:05:23;17.60;50.90
48589;DHT22;34369;51.174;6.738;2022-09-21T17:07:57;17.30;50.80
48589;DHT22;34369;51.174;6.738;2022-09-21T17:10:33;17.10;51.10
48589;DHT22;34369;51.174;6.738;2022-09-21T17:15:42;16.90;51.90
48589;DHT22;34369;51.174;6.738;2022-09-21T17:18:16;16.80;52.40
48589;DHT22;34369;51.174;6.738;2022-09-21T17:20:48;16.60;51.90
48589;DHT22;34369;51.174;6.738;2022-09-21T17:23:21;16.40;52.20
48589;DHT22;34369;51.174;6.738;2022-09-21T17:31:04;15.90;53.20
48589;DHT22;34369;51.174;6.738;2022-09-21T17:36:12;15.70;53.90
48589;DHT22;34369;51.174;6.738;2022-09-21T17:38:46;15.60;54.70
48589;DHT22;34369;51.174;6.738;2022-09-21T17:41:23;15.50;54.90
48589;DHT22;34369;51.174;6.738;2022-09-21T17:44:02;15.30;54.60
48589;DHT22;34369;51.174;6.738;2022-09-21T17:46:41;15.10;54.80
48589;DHT22;34369;51.174;6.738;2022-09-21T17:49:17;15.00;55.70
48589;DHT22;34369;51.174;6.738;2022-09-21T17:51:50;14.80;55.50
48589;DHT22;34369;51.174;6.738;2022-09-21T17:54:41;14.70;55.90
48589;DHT22;34369;51.174;6.738;2022-09-21T17:57:32;14.50;56.60
48589;DHT22;34369;51.174;6.738;2022-09-21T18:00:15;14.40;56.90
48589;DHT22;34369;51.174;6.738;2022-09-21T18:02:51;14.30;57.20
48589;DHT22;34369;51.174;6.738;2022-09-21T18:05:25;14.10;57.80
48589;DHT22;34369;51.174;6.738;2022-09-21T18:07:58;14.00;58.20
48589;DHT22;34369;51.174;6.738;2022-09-21T18:10:33;13.70;57.80
48589;DHT22;34369;51.174;6.738;2022-09-21T18:13:18;13.70;58.30
48589;DHT22;34369;51.174;6.738;2022-09-21T18:16:08;13.60;59.40
48589;DHT22;34369;51.174;6.738;2022-09-21T18:19:00;13.50;58.90
48589;DHT22;34369;51.174;6.738;2022-09-21T18:21:37;13.30;59.20
48589;DHT22;34369;51.174;6.738;2022-09-21T18:24:17;13.20;60.00
48589;DHT22;34369;51.174;6.738;2022-09-21T18:26:53;13.20;60.70
48589;DHT22;34369;51.174;6.738;2022-09-21T18:29:27;13.00;60.40
48589;DHT22;34369;51.174;6.738;2022-09-21T18:32:16;12.80;60.60
48589;DHT22;34369;51.174;6.738;2022-09-21T18:35:25;12.70;61.10
48589;DHT22;34369;51.174;6.738;2022-09-21T18:38:21;12.80;61.60
48589;DHT22;34369;51.174;6.738;2022-09-21T18:41:10;12.60;61.50
48589;DHT22;34369;51.174;6.738;2022-09-21T18:43:59;12.50;61.80
48589;DHT22;34369;51.174;6.738;2022-09-21T18:46:54;12.30;62.10
48589;DHT22;34369;51.174;6.738;2022-09-21T18:49:47;12.30;63.10
48589;DHT22;34369;51.174;6.738;2022-09-21T18:52:29;12.10;63.10
48589;DHT22;34369;51.174;6.738;2022-09-21T18:55:15;12.00;63.40
48589;DHT22;34369;51.174;6.738;2022-09-21T18:57:53;12.00;63.60
48589;DHT22;34369;51.174;6.738;2022-09-21T19:00:29;11.90;64.10
48589;DHT22;34369;51.174;6.738;2022-09-21T19:03:05;11.80;64.50
48589;DHT22;34369;51.174;6.738;2022-09-21T19:05:41;11.70;65.00
48589;DHT22;34369;51.174;6.738;2022-09-21T19:08:21;11.70;64.90
48589;DHT22;34369;51.174;6.738;2022-09-21T19:11:00;11.60;65.50
48589;DHT22;34369;51.174;6.738;2022-09-21T19:13:45;11.50;65.50
48589;DHT22;34369;51.174;6.738;2022-09-21T19:16:31;11.40;65.80
48589;DHT22;34369;51.174;6.738;2022-09-21T19:19:16;11.40;66.10
48589;DHT22;34369;51.174;6.738;2022-09-21T19:22:04;11.30;66.60
48589;DHT22;34369;51.174;6.738;2022-09-21T19:24:50;11.30;66.70
48589;DHT22;34369;51.174;6.738;2022-09-21T19:27:34;11.20;66.50
48589;DHT22;34369;51.174;6.738;2022-09-21T19:30:10;11.10;67.10
48589;DHT22;34369;51.174;6.738;2022-09-21T19:32:46;11.00;67.40
48589;DHT22;34369;51.174;6.738;2022-09-21T19:35:20;11.00;67.90
48589;DHT22;34369;51.174;6.738;2022-09-21T19:37:55;11.00;68.30
48589;DHT22;34369;51.174;6.738;2022-09-21T19:40:31;10.80;68.50
48589;DHT22;34369;51.174;6.738;2022-09-21T19:43:12;10.80;68.60
48589;DHT22;34369;51.174;6.738;2022-09-21T19:46:02;10.80;68.60
48589;DHT22;34369;51.174;6.738;2022-09-21T19:48:45;10.80;69.10
48589;DHT22;34369;51.174;6.738;2022-09-21T19:51:29;10.80;69.40
48589;DHT22;34369;51.174;6.738;2022-09-21T19:54:10;10.60;69.70
48589;DHT22;34369;51.174;6.738;2022-09-21T19:57:06;10.60;69.90
48589;DHT22;34369;51.174;6.738;2022-09-21T20:00:14;10.70;69.70
48589;DHT22;34369;51.174;6.738;2022-09-21T20:02:56;10.40;69.50
48589;DHT22;34369;51.174;6.738;2022-09-21T20:05:41;10.40;70.50
48589;DHT22;34369;51.174;6.738;2022-09-21T20:08:20;10.30;71.00
48589;DHT22;34369;51.174;6.738;2022-09-21T20:11:08;10.40;71.60
48589;DHT22;34369;51.174;6.738;2022-09-21T20:13:51;10.80;72.70
48589;DHT22;34369;51.174;6.738;2022-09-21T20:16:39;10.30;70.50
48589;DHT22;34369;51.174;6.738;2022-09-21T20:19:21;10.20;70.80
48589;DHT22;34369;51.174;6.738;2022-09-21T20:22:03;10.20;71.20
48589;DHT22;34369;51.174;6.738;2022-09-21T20:24:48;10.10;71.50
48589;DHT22;34369;51.174;6.738;2022-09-21T20:27:27;10.10;71.80
48589;DHT22;34369;51.174;6.738;2022-09-21T20:30:06;10.00;72.60
48589;DHT22;34369;51.174;6.738;2022-09-21T20:32:42;10.00;71.80
48589;DHT22;34369;51.174;6.738;2022-09-21T20:35:16;10.00;72.00
48589;DHT22;34369;51.174;6.738;2022-09-21T20:37:50;9.90;72.20
48589;DHT22;34369;51.174;6.738;2022-09-21T20:40:23;9.90;72.50
48589;DHT22;34369;51.174;6.738;2022-09-21T20:42:58;10.00;73.10